createdAt,value
2017-07-21T00:02:15.190Z,20.70
2017-07-21T00:05:18.511Z,20.60
2017-07-21T00:08:21.793Z,20.70
2017-07-21T00:11:25.126Z,20.70
2017-07-21T00:14:28.401Z,20.70
2017-07-21T00:17:32.500Z,20.70
2017-07-21T00:20:35.808Z,20.70
2017-07-21T00:23:39.905Z,20.60
2017-07-21T00:26:43.243Z,20.50
2017-07-21T00:29:46.539Z,20.50
2017-07-21T00:32:49.851Z,20.40
2017-07-21T00:35:53.126Z,20.50
2017-07-21T00:38:56.431Z,20.50
2017-07-21T00:41:59.716Z,20.50
2017-07-21T00:45:03.027Z,20.30
2017-07-21T00:48:06.488Z,20.20
2017-07-21T00:51:09.793Z,20.20
2017-07-21T00:54:13.878Z,20.10
2017-07-21T00:57:17.181Z,20.10
2017-07-21T01:00:20.494Z,20.10
2017-07-21T01:03:24.565Z,20.20
2017-07-21T01:06:27.900Z,20.20
2017-07-21T01:09:31.981Z,20.10
2017-07-21T01:12:35.296Z,20.00
2017-07-21T01:15:38.887Z,20.10
2017-07-21T01:18:42.197Z,19.90
2017-07-21T01:21:45.510Z,20.00
2017-07-21T01:24:49.586Z,19.90
2017-07-21T01:27:52.921Z,19.80
2017-07-21T01:30:56.975Z,19.80
2017-07-21T01:34:00.305Z,19.80
2017-07-21T01:37:03.591Z,19.80
2017-07-21T01:40:06.898Z,19.80
2017-07-21T01:43:10.210Z,19.70
2017-07-21T01:46:13.490Z,19.60
2017-07-21T01:49:17.079Z,19.70
2017-07-21T01:52:20.381Z,19.70
2017-07-21T01:55:23.694Z,19.70
2017-07-21T01:58:26.997Z,19.70
2017-07-21T02:01:30.310Z,19.60
2017-07-21T02:04:34.378Z,19.50
2017-07-21T02:07:37.695Z,19.50
2017-07-21T02:10:41.137Z,19.50
2017-07-21T02:13:44.420Z,19.50
2017-07-21T02:16:47.757Z,19.30
2017-07-21T02:19:51.039Z,19.10
2017-07-21T02:22:54.378Z,19.30
2017-07-21T02:25:57.653Z,19.10
2017-07-21T02:29:00.986Z,19.10
2017-07-21T02:32:05.053Z,19.20
2017-07-21T02:35:08.388Z,19.10
2017-07-21T02:38:11.670Z,19.20
2017-07-21T02:41:15.011Z,19.10
2017-07-21T02:44:18.289Z,19.10
2017-07-21T02:47:22.397Z,19.10
2017-07-21T02:50:26.662Z,19.00
2017-07-21T02:53:29.970Z,19.00
2017-07-21T02:56:33.498Z,19.00
2017-07-21T02:59:37.590Z,18.90
2017-07-21T03:02:40.929Z,18.90
2017-07-21T03:05:44.247Z,18.90
2017-07-21T03:08:47.587Z,18.90
2017-07-21T03:11:51.289Z,18.80
2017-07-21T03:14:54.593Z,18.80
2017-07-21T03:17:58.021Z,18.80
2017-07-21T03:21:02.074Z,18.80
2017-07-21T03:24:05.416Z,18.70
2017-07-21T03:27:08.725Z,18.70
2017-07-21T03:30:12.830Z,18.60
2017-07-21T03:33:16.884Z,18.50
2017-07-21T03:36:20.203Z,18.50
2017-07-21T03:39:23.522Z,18.50
2017-07-21T03:42:26.805Z,18.40
2017-07-21T03:45:30.245Z,18.40
2017-07-21T03:48:34.316Z,18.30
2017-07-21T03:51:37.625Z,18.30
2017-07-21T03:54:40.930Z,18.30
2017-07-21T03:57:44.270Z,18.30
2017-07-21T04:00:47.637Z,18.30
2017-07-21T04:03:50.955Z,18.30
2017-07-21T04:06:54.473Z,18.30
2017-07-21T04:09:57.777Z,18.30
2017-07-21T04:13:01.089Z,18.30
2017-07-21T04:16:04.378Z,18.30
2017-07-21T04:19:07.716Z,18.20
2017-07-21T04:22:11.773Z,18.20
2017-07-21T04:25:15.080Z,18.10
2017-07-21T04:28:18.552Z,18.20
2017-07-21T04:31:21.853Z,18.20
2017-07-21T04:34:25.196Z,18.10
2017-07-21T04:37:28.489Z,18.10
2017-07-21T04:40:31.831Z,18.20
2017-07-21T04:43:35.142Z,18.20
2017-07-21T04:46:38.462Z,18.20
2017-07-21T04:49:41.764Z,18.00
2017-07-21T04:52:45.114Z,18.00
2017-07-21T04:55:49.201Z,18.00
2017-07-21T04:58:52.485Z,18.00
2017-07-21T05:01:55.803Z,18.00
2017-07-21T05:04:59.893Z,18.20
2017-07-21T05:08:03.404Z,18.10
2017-07-21T05:11:07.505Z,18.20
2017-07-21T05:14:10.840Z,18.20
2017-07-21T05:17:14.889Z,18.10
2017-07-21T05:20:18.227Z,18.10
2017-07-21T05:23:21.571Z,18.10
2017-07-21T05:26:24.877Z,18.20
2017-07-21T05:29:28.237Z,18.10
2017-07-21T05:32:32.313Z,18.20
2017-07-21T05:35:35.656Z,18.20
2017-07-21T05:38:39.729Z,18.30
2017-07-21T05:41:43.062Z,18.30
2017-07-21T05:44:47.113Z,18.40
2017-07-21T05:47:50.448Z,18.40
2017-07-21T05:50:53.870Z,18.30
2017-07-21T05:53:57.922Z,18.10
2017-07-21T05:57:01.243Z,18.10
2017-07-21T06:00:04.562Z,18.10
2017-07-21T06:03:08.673Z,18.00
2017-07-21T06:06:11.961Z,18.00
2017-07-21T06:09:15.305Z,17.90
2017-07-21T06:12:18.642Z,17.90
2017-07-21T06:15:21.926Z,18.00
2017-07-21T06:18:25.247Z,18.10
2017-07-21T06:21:28.526Z,18.30
2017-07-21T06:24:31.870Z,18.40
2017-07-21T06:27:35.178Z,18.60
2017-07-21T06:30:38.502Z,18.50
2017-07-21T06:33:41.809Z,18.50
2017-07-21T06:36:45.130Z,18.50
2017-07-21T06:39:48.582Z,18.70
2017-07-21T06:42:51.893Z,18.60
2017-07-21T06:45:55.230Z,18.70
2017-07-21T06:48:59.301Z,18.70
2017-07-21T06:52:02.643Z,18.70
2017-07-21T06:55:06.726Z,18.90
2017-07-21T06:58:10.041Z,18.80
2017-07-21T07:01:13.526Z,18.80
2017-07-21T07:04:16.840Z,18.80
2017-07-21T07:07:20.154Z,18.90
2017-07-21T07:10:24.206Z,19.20
2017-07-21T07:13:27.559Z,19.20
2017-07-21T07:16:31.644Z,19.40
2017-07-21T07:19:35.027Z,19.40
2017-07-21T07:22:38.318Z,19.30
2017-07-21T07:25:41.638Z,19.40
2017-07-21T07:28:45.097Z,19.60
2017-07-21T07:31:48.408Z,19.70
2017-07-21T07:34:51.771Z,19.70
2017-07-21T07:37:55.105Z,19.80
2017-07-21T07:40:58.438Z,19.80
2017-07-21T07:44:02.737Z,20.00
2017-07-21T07:47:06.052Z,20.00
2017-07-21T07:50:10.169Z,20.10
2017-07-21T07:53:13.480Z,20.20
2017-07-21T07:56:17.602Z,20.20
2017-07-21T07:59:20.903Z,20.20
2017-07-21T08:02:24.257Z,20.20
2017-07-21T08:05:27.559Z,20.20
2017-07-21T08:08:30.913Z,20.30
2017-07-21T08:11:34.326Z,20.30
2017-07-21T08:14:37.800Z,20.50
2017-07-21T08:17:41.261Z,20.50
2017-07-21T08:20:44.560Z,20.50
2017-07-21T08:23:48.674Z,20.50
2017-07-21T08:26:51.980Z,20.50
2017-07-21T08:29:55.606Z,20.70
2017-07-21T08:32:58.974Z,20.70
2017-07-21T08:36:02.321Z,20.70
2017-07-21T08:39:06.432Z,20.80
2017-07-21T08:42:10.512Z,20.90
2017-07-21T08:45:13.881Z,20.90
2017-07-21T08:48:17.182Z,21.00
2017-07-21T08:51:20.525Z,21.00
2017-07-21T08:54:23.823Z,21.10
2017-07-21T08:57:27.145Z,21.00
2017-07-21T09:00:30.441Z,20.90
2017-07-21T09:03:33.784Z,21.00
2017-07-21T09:06:37.225Z,21.20
2017-07-21T09:09:41.282Z,21.40
2017-07-21T09:12:44.613Z,21.40
2017-07-21T09:15:47.916Z,21.40
2017-07-21T09:18:51.273Z,21.50
2017-07-21T09:21:54.580Z,21.60
2017-07-21T09:24:57.893Z,21.60
2017-07-21T09:28:02.164Z,21.60
2017-07-21T09:31:05.477Z,21.50
2017-07-21T09:34:09.177Z,21.60
2017-07-21T09:37:12.480Z,21.50
2017-07-21T09:40:15.798Z,21.80
2017-07-21T09:43:19.118Z,21.90
2017-07-21T09:46:23.218Z,22.00
2017-07-21T09:49:27.288Z,22.00
2017-07-21T09:52:30.617Z,22.00
2017-07-21T09:55:34.186Z,22.00
2017-07-21T09:58:37.469Z,22.10
2017-07-21T10:01:40.905Z,22.30
2017-07-21T10:04:43.539Z,22.40
2017-07-21T10:07:46.853Z,22.00
2017-07-21T10:10:50.160Z,22.20
2017-07-21T10:13:53.502Z,22.40
2017-07-21T10:16:57.553Z,22.70
2017-07-21T10:20:00.890Z,22.70
2017-07-21T10:23:04.377Z,23.00
2017-07-21T10:26:07.661Z,23.10
2017-07-21T10:29:11.005Z,23.00
2017-07-21T10:32:15.058Z,22.80
2017-07-21T10:35:18.393Z,22.70
2017-07-21T10:38:21.675Z,22.90
2017-07-21T10:41:24.991Z,23.20
2017-07-21T10:44:28.294Z,23.20
2017-07-21T10:47:32.376Z,23.00
2017-07-21T10:50:35.695Z,22.90
2017-07-21T10:53:38.975Z,23.00
2017-07-21T10:56:42.299Z,23.10
2017-07-21T10:59:46.355Z,22.80
2017-07-21T11:02:49.694Z,22.70
2017-07-21T11:05:52.974Z,22.40
2017-07-21T11:08:56.286Z,22.30
2017-07-21T11:15:09.271Z,22.40
2017-07-21T11:18:12.604Z,22.80
2017-07-21T11:21:15.902Z,23.00
2017-07-21T11:24:20.009Z,23.30
2017-07-21T11:27:24.051Z,23.30
2017-07-21T11:30:27.395Z,23.30
2017-07-21T11:33:30.698Z,23.30
2017-07-21T11:36:34.042Z,23.50
2017-07-21T11:39:37.559Z,23.50
2017-07-21T11:42:40.836Z,23.60
2017-07-21T11:45:44.174Z,23.70
2017-07-21T11:48:47.454Z,23.90
2017-07-21T11:51:50.790Z,24.40
2017-07-21T11:54:54.860Z,24.30
2017-07-21T11:58:00.295Z,24.30
2017-07-21T12:01:05.480Z,23.90
2017-07-21T12:04:08.795Z,23.80
2017-07-21T12:07:12.865Z,24.00
2017-07-21T12:10:17.688Z,24.10
2017-07-21T12:13:24.394Z,24.40
2017-07-21T12:16:32.921Z,24.20
2017-07-21T12:19:36.205Z,24.00
2017-07-21T12:22:40.771Z,23.60
2017-07-21T12:25:45.057Z,23.60
2017-07-21T12:28:49.342Z,23.40
2017-07-21T12:31:52.882Z,23.40
2017-07-21T12:34:56.242Z,23.60
2017-07-21T12:37:59.749Z,23.40
2017-07-21T12:41:03.430Z,23.40
2017-07-21T12:44:06.708Z,23.70
2017-07-21T12:47:10.023Z,23.80
2017-07-21T12:50:13.315Z,24.20
2017-07-21T12:53:16.623Z,24.60
2017-07-21T12:56:19.926Z,24.40
2017-07-21T12:59:23.241Z,24.20
2017-07-21T13:02:26.526Z,24.40
2017-07-21T13:05:29.834Z,24.10
2017-07-21T13:11:42.647Z,24.60
2017-07-21T13:14:46.158Z,24.70
2017-07-21T13:17:49.451Z,24.50
2017-07-21T13:20:52.790Z,24.80
2017-07-21T13:23:56.839Z,25.40
2017-07-21T13:27:00.177Z,25.30
2017-07-21T13:30:03.473Z,25.60
2017-07-21T13:33:06.807Z,25.70
2017-07-21T13:36:10.110Z,25.70
2017-07-21T13:39:13.447Z,25.90
2017-07-21T13:42:16.786Z,26.10
2017-07-21T13:45:23.353Z,25.80
2017-07-21T13:48:26.705Z,25.80
2017-07-21T13:51:29.980Z,25.70
2017-07-21T13:54:33.289Z,25.90
2017-07-21T13:57:36.586Z,25.90
2017-07-21T14:00:40.691Z,25.50
2017-07-21T14:03:44.025Z,25.40
2017-07-21T14:06:47.360Z,25.80
2017-07-21T14:09:51.014Z,25.80
2017-07-21T14:12:54.297Z,25.80
2017-07-21T14:15:57.633Z,25.80
2017-07-21T14:19:01.697Z,25.70
2017-07-21T14:22:05.002Z,25.60
2017-07-21T14:25:08.281Z,26.00
2017-07-21T14:28:11.588Z,26.10
2017-07-21T14:31:15.051Z,26.40
2017-07-21T14:34:19.118Z,26.90
2017-07-21T14:37:22.425Z,26.90
2017-07-21T14:40:25.706Z,26.50
2017-07-21T14:43:29.018Z,26.50
2017-07-21T14:46:32.301Z,26.60
2017-07-21T14:49:35.624Z,26.80
2017-07-21T14:52:39.042Z,26.70
2017-07-21T14:55:43.088Z,27.10
2017-07-21T14:58:46.397Z,27.10
2017-07-21T15:01:49.678Z,26.80
2017-07-21T15:04:53.007Z,26.40
2017-07-21T15:07:56.310Z,26.20
2017-07-21T15:10:59.625Z,26.60
2017-07-21T15:14:03.696Z,26.50
2017-07-21T15:17:07.033Z,26.50
2017-07-21T15:20:11.127Z,26.30
2017-07-21T15:23:14.432Z,26.30
2017-07-21T15:26:17.770Z,26.20
2017-07-21T15:29:21.046Z,26.10
2017-07-21T15:32:24.381Z,26.10
2017-07-21T15:35:28.448Z,26.10
2017-07-21T15:38:31.812Z,26.10
2017-07-21T15:41:35.146Z,26.10
2017-07-21T15:44:38.432Z,26.10
2017-07-21T15:47:41.762Z,26.00
2017-07-21T15:50:45.068Z,26.00
2017-07-21T15:53:48.379Z,26.00
2017-07-21T15:56:52.421Z,25.90
2017-07-21T15:59:55.754Z,25.90
2017-07-21T16:02:59.035Z,25.80
2017-07-21T16:06:02.374Z,25.60
2017-07-21T16:09:06.576Z,25.60
2017-07-21T16:12:09.881Z,25.50
2017-07-21T16:15:13.212Z,25.50
2017-07-21T16:18:16.499Z,25.30
2017-07-21T16:21:19.849Z,25.20
2017-07-21T16:24:23.161Z,24.90
2017-07-21T16:27:27.266Z,24.70
2017-07-21T16:30:30.587Z,24.70
2017-07-21T16:33:34.696Z,24.60
2017-07-21T16:36:38.899Z,24.60
2017-07-21T16:39:42.225Z,24.50
2017-07-21T16:42:45.539Z,24.50
2017-07-21T16:45:48.857Z,24.60
2017-07-21T16:48:52.193Z,24.70
2017-07-21T16:51:56.572Z,24.60
2017-07-21T16:54:59.892Z,24.60
2017-07-21T16:58:03.982Z,24.80
2017-07-21T17:01:07.289Z,24.80
2017-07-21T17:04:11.374Z,24.70
2017-07-21T17:07:14.677Z,24.70
2017-07-21T17:10:18.034Z,24.60
2017-07-21T17:13:21.717Z,24.50
2017-07-21T17:16:25.031Z,24.60
2017-07-21T17:19:28.356Z,24.50
2017-07-21T17:22:31.656Z,24.60
2017-07-21T17:25:34.999Z,24.60
2017-07-21T17:28:39.081Z,24.60
2017-07-21T17:31:42.407Z,24.60
2017-07-21T17:34:46.499Z,24.60
2017-07-21T17:37:49.861Z,24.50
2017-07-21T17:40:53.542Z,24.40
2017-07-21T17:43:57.015Z,24.30
2017-07-21T17:47:00.359Z,24.20
2017-07-21T17:50:03.676Z,24.20
2017-07-21T17:53:06.998Z,24.10
2017-07-21T17:56:11.059Z,23.80
2017-07-21T17:59:15.168Z,23.70
2017-07-21T18:02:18.472Z,23.70
2017-07-21T18:05:22.561Z,23.40
2017-07-21T18:08:25.905Z,23.40
2017-07-21T18:11:29.205Z,23.40
2017-07-21T18:14:32.537Z,23.30
2017-07-21T18:17:35.870Z,23.50
2017-07-21T18:20:39.345Z,23.50
2017-07-21T18:23:42.740Z,23.40
2017-07-21T18:26:46.075Z,23.40
2017-07-21T18:29:50.302Z,23.30
2017-07-21T18:32:54.433Z,23.30
2017-07-21T18:35:57.810Z,23.30
2017-07-21T18:39:01.233Z,23.20
2017-07-21T18:42:05.443Z,23.10
2017-07-21T18:45:08.936Z,23.10
2017-07-21T18:48:12.356Z,22.90
2017-07-21T18:51:15.712Z,22.80
2017-07-21T18:54:19.098Z,22.90
2017-07-21T18:57:23.322Z,22.70
2017-07-21T19:00:26.693Z,22.70
2017-07-21T19:03:30.132Z,22.80
2017-07-21T19:06:33.452Z,22.70
2017-07-21T19:09:36.768Z,22.60
2017-07-21T19:12:40.126Z,22.50
2017-07-21T19:15:43.465Z,22.40
2017-07-21T19:18:46.942Z,22.40
2017-07-21T19:21:50.261Z,22.50
2017-07-21T19:24:54.404Z,22.20
2017-07-21T19:27:57.713Z,22.30
2017-07-21T19:31:01.046Z,22.20
2017-07-21T19:34:05.129Z,22.20
2017-07-21T19:37:09.185Z,22.20
2017-07-21T19:40:12.614Z,22.10
2017-07-21T19:43:15.910Z,22.10
2017-07-21T19:46:19.398Z,22.10
2017-07-21T19:49:22.739Z,22.00
2017-07-21T19:52:26.204Z,22.00
2017-07-21T19:55:29.490Z,22.00
2017-07-21T19:58:32.815Z,22.00
2017-07-21T20:01:36.163Z,21.90
2017-07-21T20:04:39.509Z,21.80
2017-07-21T20:07:43.006Z,21.80
2017-07-21T20:10:46.429Z,21.90
2017-07-21T20:13:50.526Z,21.80
2017-07-21T20:16:54.218Z,21.80
2017-07-21T20:19:57.561Z,21.80
2017-07-21T20:23:01.741Z,21.50
2017-07-21T20:26:05.103Z,21.50
2017-07-21T20:29:09.241Z,21.60
2017-07-21T20:32:12.629Z,21.50
2017-07-21T20:35:16.316Z,21.50
2017-07-21T20:38:19.668Z,21.50
2017-07-21T20:41:23.004Z,21.40
2017-07-21T20:44:26.316Z,21.40
2017-07-21T20:47:29.688Z,21.40
2017-07-21T20:50:33.044Z,21.50
2017-07-21T20:53:36.373Z,21.50
2017-07-21T20:56:39.794Z,21.30
2017-07-21T20:59:43.183Z,21.30
2017-07-21T21:02:46.586Z,21.20
2017-07-21T21:05:50.919Z,21.30
2017-07-21T21:08:54.515Z,21.20
2017-07-21T21:11:57.827Z,21.30
2017-07-21T21:15:01.150Z,21.40
2017-07-21T21:18:05.333Z,21.40
2017-07-21T21:21:08.634Z,21.40
2017-07-21T21:24:11.979Z,21.40
2017-07-21T21:27:15.286Z,21.30
2017-07-21T21:30:18.703Z,21.30
2017-07-21T21:33:21.985Z,21.40
2017-07-21T21:36:25.293Z,21.40
2017-07-21T21:39:28.600Z,21.40
2017-07-21T21:42:31.910Z,21.50
2017-07-21T21:45:35.190Z,21.50
2017-07-21T21:48:38.533Z,21.40
2017-07-21T21:51:42.608Z,21.50
2017-07-21T21:54:45.921Z,21.50
2017-07-21T21:57:49.238Z,21.50
2017-07-21T22:00:53.311Z,21.60
2017-07-21T22:03:56.754Z,21.50
2017-07-21T22:07:00.825Z,21.60
2017-07-21T22:10:04.142Z,21.60
2017-07-21T22:13:07.448Z,21.60
2017-07-21T22:16:11.710Z,21.70
2017-07-21T22:19:14.989Z,21.70
2017-07-21T22:22:18.331Z,21.70
2017-07-21T22:25:21.672Z,21.70
2017-07-21T22:28:25.736Z,21.60
2017-07-21T22:31:29.055Z,21.60
2017-07-21T22:34:32.344Z,21.60
2017-07-21T22:37:35.682Z,21.50
2017-07-21T22:40:38.985Z,21.60
2017-07-21T22:43:42.298Z,21.60
2017-07-21T22:46:45.719Z,21.60
2017-07-21T22:49:48.998Z,21.40
2017-07-21T22:52:52.322Z,21.30
2017-07-21T22:55:55.629Z,21.30
2017-07-21T22:58:58.938Z,21.40
2017-07-21T23:02:02.982Z,21.30
2017-07-21T23:05:06.295Z,21.20
2017-07-21T23:08:09.577Z,21.40
2017-07-21T23:11:12.882Z,21.40
2017-07-21T23:14:16.193Z,21.40
2017-07-21T23:17:19.478Z,21.40
2017-07-21T23:20:22.794Z,21.40
2017-07-21T23:23:26.078Z,21.30
2017-07-21T23:26:29.416Z,21.20
2017-07-21T23:29:33.596Z,21.20
2017-07-21T23:32:36.874Z,21.20
2017-07-21T23:35:40.198Z,21.30
2017-07-21T23:38:43.475Z,21.30
2017-07-21T23:41:46.783Z,21.30
2017-07-21T23:44:50.086Z,21.30
2017-07-21T23:47:53.395Z,21.40
2017-07-21T23:50:56.694Z,21.30
2017-07-21T23:54:00.027Z,21.30
2017-07-21T23:57:03.341Z,21.10
